sensor_id;sensor_type;location;lat;lon;timestamp;P1;durP1;ratioP1;P2;durP2;ratioP2
19965;SDS011;10144;50.874;4.762;2023-03-01T00:00:03;19.20;;;9.60;;
19965;SDS011;10144;50.874;4.762;2023-03-01T00:02:32;23.47;;;10.17;;
19965;SDS011;10144;50.874;4.762;2023-03-01T00:07:38;25.37;;;10.47;;
19965;SDS011;10144;50.874;4.762;2023-03-01T00:12:37;20.20;;;9.17;;
19965;SDS011;10144;50.874;4.762;2023-03-01T00:17:35;22.10;;;10.17;;
19965;SDS011;10144;50.874;4.762;2023-03-01T00:27:40;21.00;;;9.57;;
19965;SDS011;10144;50.874;4.762;2023-03-01T00:30:21;24.07;;;10.27;;
19965;SDS011;10144;50.874;4.762;2023-03-01T00:32:53;21.37;;;10.00;;
19965;SDS011;10144;50.874;4.762;2023-03-01T00:35:20;23.90;;;9.90;;
19965;SDS011;10144;50.874;4.762;2023-03-01T00:37:51;22.83;;;10.03;;
19965;SDS011;10144;50.874;4.762;2023-03-01T00:40:29;23.30;;;9.50;;
19965;SDS011;10144;50.874;4.762;2023-03-01T00:43:03;24.23;;;10.07;;
19965;SDS011;10144;50.874;4.762;2023-03-01T00:45:35;20.37;;;10.00;;
19965;SDS011;10144;50.874;4.762;2023-03-01T00:48:00;21.47;;;9.80;;
19965;SDS011;10144;50.874;4.762;2023-03-01T00:50:28;25.83;;;10.60;;
19965;SDS011;10144;50.874;4.762;2023-03-01T00:52:57;22.00;;;9.80;;
19965;SDS011;10144;50.874;4.762;2023-03-01T00:55:29;24.80;;;10.67;;
19965;SDS011;10144;50.874;4.762;2023-03-01T00:57:55;24.97;;;10.73;;
19965;SDS011;10144;50.874;4.762;2023-03-01T01:00:21;22.27;;;9.93;;
19965;SDS011;10144;50.874;4.762;2023-03-01T01:02:50;23.87;;;9.87;;
19965;SDS011;10144;50.874;4.762;2023-03-01T01:07:48;22.60;;;10.50;;
19965;SDS011;10144;50.874;4.762;2023-03-01T01:10:22;21.83;;;10.17;;
19965;SDS011;10144;50.874;4.762;2023-03-01T01:12:51;22.43;;;9.50;;
19965;SDS011;10144;50.874;4.762;2023-03-01T01:15:22;24.73;;;9.97;;
19965;SDS011;10144;50.874;4.762;2023-03-01T01:20:32;21.37;;;9.07;;
19965;SDS011;10144;50.874;4.762;2023-03-01T01:22:59;20.43;;;9.40;;
19965;SDS011;10144;50.874;4.762;2023-03-01T01:25:28;21.23;;;9.50;;
19965;SDS011;10144;50.874;4.762;2023-03-01T01:28:06;22.00;;;9.17;;
19965;SDS011;10144;50.874;4.762;2023-03-01T01:30:33;24.63;;;9.83;;
19965;SDS011;10144;50.874;4.762;2023-03-01T01:33:02;24.37;;;9.30;;
19965;SDS011;10144;50.874;4.762;2023-03-01T01:35:31;22.23;;;9.13;;
19965;SDS011;10144;50.874;4.762;2023-03-01T01:37:59;19.57;;;9.03;;
19965;SDS011;10144;50.874;4.762;2023-03-01T01:45:48;23.57;;;9.83;;
19965;SDS011;10144;50.874;4.762;2023-03-01T01:48:16;25.80;;;10.23;;
19965;SDS011;10144;50.874;4.762;2023-03-01T01:50:50;21.37;;;9.63;;
19965;SDS011;10144;50.874;4.762;2023-03-01T01:53:23;22.47;;;9.97;;
19965;SDS011;10144;50.874;4.762;2023-03-01T01:58:39;24.90;;;9.20;;
19965;SDS011;10144;50.874;4.762;2023-03-01T02:01:07;23.63;;;10.00;;
19965;SDS011;10144;50.874;4.762;2023-03-01T02:03:36;22.87;;;10.10;;
19965;SDS011;10144;50.874;4.762;2023-03-01T02:08:49;22.23;;;9.90;;
19965;SDS011;10144;50.874;4.762;2023-03-01T02:11:18;20.80;;;9.47;;
19965;SDS011;10144;50.874;4.762;2023-03-01T02:13:44;20.27;;;9.67;;
19965;SDS011;10144;50.874;4.762;2023-03-01T02:16:13;23.37;;;10.03;;
19965;SDS011;10144;50.874;4.762;2023-03-01T02:18:41;24.47;;;9.50;;
19965;SDS011;10144;50.874;4.762;2023-03-01T02:21:16;22.80;;;10.30;;
19965;SDS011;10144;50.874;4.762;2023-03-01T02:24:00;22.53;;;10.20;;
19965;SDS011;10144;50.874;4.762;2023-03-01T02:26:45;25.43;;;10.00;;
19965;SDS011;10144;50.874;4.762;2023-03-01T02:29:15;23.83;;;10.27;;
19965;SDS011;10144;50.874;4.762;2023-03-01T02:31:40;25.10;;;9.97;;
19965;SDS011;10144;50.874;4.762;2023-03-01T02:34:07;22.23;;;9.80;;
19965;SDS011;10144;50.874;4.762;2023-03-01T02:36:37;26.07;;;10.77;;
19965;SDS011;10144;50.874;4.762;2023-03-01T02:41:43;25.43;;;10.63;;
19965;SDS011;10144;50.874;4.762;2023-03-01T02:44:13;19.97;;;9.60;;
19965;SDS011;10144;50.874;4.762;2023-03-01T02:46:52;22.60;;;10.70;;
19965;SDS011;10144;50.874;4.762;2023-03-01T02:52:04;23.27;;;9.87;;
19965;SDS011;10144;50.874;4.762;2023-03-01T02:57:12;24.17;;;9.97;;
19965;SDS011;10144;50.874;4.762;2023-03-01T02:59:40;24.53;;;10.17;;
19965;SDS011;10144;50.874;4.762;2023-03-01T03:02:08;24.67;;;10.20;;
19965;SDS011;10144;50.874;4.762;2023-03-01T03:05:02;27.33;;;10.50;;
19965;SDS011;10144;50.874;4.762;2023-03-01T03:07:31;26.43;;;10.53;;
19965;SDS011;10144;50.874;4.762;2023-03-01T03:10:00;22.67;;;10.70;;
19965;SDS011;10144;50.874;4.762;2023-03-01T03:12:30;26.90;;;10.63;;
19965;SDS011;10144;50.874;4.762;2023-03-01T03:14:59;24.10;;;10.70;;
19965;SDS011;10144;50.874;4.762;2023-03-01T03:17:24;24.37;;;11.07;;
19965;SDS011;10144;50.874;4.762;2023-03-01T03:19:52;29.63;;;11.00;;
19965;SDS011;10144;50.874;4.762;2023-03-01T03:24:54;27.23;;;10.93;;
19965;SDS011;10144;50.874;4.762;2023-03-01T03:27:23;20.60;;;9.73;;
19965;SDS011;10144;50.874;4.762;2023-03-01T03:29:51;25.57;;;10.17;;
19965;SDS011;10144;50.874;4.762;2023-03-01T03:35:44;24.57;;;10.27;;
19965;SDS011;10144;50.874;4.762;2023-03-01T03:38:22;24.57;;;10.67;;
19965;SDS011;10144;50.874;4.762;2023-03-01T03:41:21;24.87;;;10.97;;
19965;SDS011;10144;50.874;4.762;2023-03-01T03:43:54;25.57;;;11.27;;
19965;SDS011;10144;50.874;4.762;2023-03-01T03:46:22;24.70;;;10.30;;
19965;SDS011;10144;50.874;4.762;2023-03-01T03:48:50;21.80;;;9.60;;
19965;SDS011;10144;50.874;4.762;2023-03-01T03:51:18;26.87;;;11.27;;
19965;SDS011;10144;50.874;4.762;2023-03-01T03:53:44;23.50;;;10.27;;
19965;SDS011;10144;50.874;4.762;2023-03-01T03:56:12;26.97;;;10.77;;
19965;SDS011;10144;50.874;4.762;2023-03-01T03:58:41;22.27;;;10.40;;
19965;SDS011;10144;50.874;4.762;2023-03-01T04:01:08;25.00;;;10.73;;
19965;SDS011;10144;50.874;4.762;2023-03-01T04:03:51;27.90;;;11.30;;
19965;SDS011;10144;50.874;4.762;2023-03-01T04:06:20;25.53;;;10.43;;
19965;SDS011;10144;50.874;4.762;2023-03-01T04:08:46;23.83;;;10.53;;
19965;SDS011;10144;50.874;4.762;2023-03-01T04:11:13;28.87;;;12.10;;
19965;SDS011;10144;50.874;4.762;2023-03-01T04:17:08;28.20;;;12.20;;
19965;SDS011;10144;50.874;4.762;2023-03-01T04:19:39;23.87;;;10.53;;
19965;SDS011;10144;50.874;4.762;2023-03-01T04:22:08;26.00;;;11.30;;
19965;SDS011;10144;50.874;4.762;2023-03-01T04:24:37;23.80;;;10.83;;
19965;SDS011;10144;50.874;4.762;2023-03-01T04:27:06;26.77;;;10.70;;
19965;SDS011;10144;50.874;4.762;2023-03-01T04:29:35;28.60;;;11.63;;
19965;SDS011;10144;50.874;4.762;2023-03-01T04:34:33;26.90;;;11.30;;
19965;SDS011;10144;50.874;4.762;2023-03-01T04:37:14;26.20;;;11.07;;
19965;SDS011;10144;50.874;4.762;2023-03-01T04:39:46;27.73;;;11.27;;
19965;SDS011;10144;50.874;4.762;2023-03-01T04:42:18;24.90;;;10.73;;
19965;SDS011;10144;50.874;4.762;2023-03-01T04:44:47;29.07;;;11.20;;
19965;SDS011;10144;50.874;4.762;2023-03-01T04:47:19;28.17;;;11.30;;
19965;SDS011;10144;50.874;4.762;2023-03-01T04:52:17;28.20;;;11.47;;
19965;SDS011;10144;50.874;4.762;2023-03-01T04:54:48;26.67;;;11.63;;
19965;SDS011;10144;50.874;4.762;2023-03-01T04:57:14;27.60;;;11.40;;
19965;SDS011;10144;50.874;4.762;2023-03-01T04:59:48;29.80;;;12.00;;
19965;SDS011;10144;50.874;4.762;2023-03-01T05:02:19;24.83;;;11.57;;
19965;SDS011;10144;50.874;4.762;2023-03-01T05:04:46;28.43;;;11.80;;
19965;SDS011;10144;50.874;4.762;2023-03-01T05:09:46;28.23;;;11.57;;
19965;SDS011;10144;50.874;4.762;2023-03-01T05:12:23;29.63;;;12.07;;
19965;SDS011;10144;50.874;4.762;2023-03-01T05:14:48;26.40;;;11.60;;
19965;SDS011;10144;50.874;4.762;2023-03-01T05:17:19;35.87;;;12.20;;
19965;SDS011;10144;50.874;4.762;2023-03-01T05:19:51;28.40;;;12.53;;
19965;SDS011;10144;50.874;4.762;2023-03-01T05:22:20;29.10;;;12.03;;
19965;SDS011;10144;50.874;4.762;2023-03-01T05:24:50;34.77;;;12.13;;
19965;SDS011;10144;50.874;4.762;2023-03-01T05:29:47;27.20;;;11.73;;
19965;SDS011;10144;50.874;4.762;2023-03-01T05:32:29;28.67;;;11.87;;
19965;SDS011;10144;50.874;4.762;2023-03-01T05:35:00;28.67;;;11.67;;
19965;SDS011;10144;50.874;4.762;2023-03-01T05:40:07;26.23;;;11.57;;
19965;SDS011;10144;50.874;4.762;2023-03-01T05:42:49;30.93;;;12.13;;
19965;SDS011;10144;50.874;4.762;2023-03-01T05:45:24;29.10;;;12.00;;
19965;SDS011;10144;50.874;4.762;2023-03-01T05:47:52;28.97;;;11.87;;
19965;SDS011;10144;50.874;4.762;2023-03-01T05:50:22;30.87;;;11.90;;
19965;SDS011;10144;50.874;4.762;2023-03-01T05:55:47;27.30;;;11.33;;
19965;SDS011;10144;50.874;4.762;2023-03-01T05:58:22;29.60;;;12.50;;
19965;SDS011;10144;50.874;4.762;2023-03-01T06:00:49;29.47;;;11.93;;
19965;SDS011;10144;50.874;4.762;2023-03-01T06:03:16;27.53;;;11.47;;
19965;SDS011;10144;50.874;4.762;2023-03-01T06:05:48;32.30;;;12.27;;
19965;SDS011;10144;50.874;4.762;2023-03-01T06:08:17;33.50;;;12.50;;
19965;SDS011;10144;50.874;4.762;2023-03-01T06:13:13;28.13;;;12.30;;
19965;SDS011;10144;50.874;4.762;2023-03-01T06:15:42;28.90;;;12.07;;
19965;SDS011;10144;50.874;4.762;2023-03-01T06:18:11;31.93;;;12.40;;
19965;SDS011;10144;50.874;4.762;2023-03-01T06:23:29;66.20;;;26.00;;
19965;SDS011;10144;50.874;4.762;2023-03-01T06:25:56;115.50;;;42.30;;
19965;SDS011;10144;50.874;4.762;2023-03-01T06:28:24;98.80;;;35.03;;
19965;SDS011;10144;50.874;4.762;2023-03-01T06:33:25;46.73;;;22.53;;
19965;SDS011;10144;50.874;4.762;2023-03-01T06:35:54;43.77;;;17.57;;
19965;SDS011;10144;50.874;4.762;2023-03-01T06:40:56;35.80;;;14.23;;
19965;SDS011;10144;50.874;4.762;2023-03-01T06:43:27;37.17;;;15.27;;
19965;SDS011;10144;50.874;4.762;2023-03-01T06:45:55;32.43;;;13.23;;
19965;SDS011;10144;50.874;4.762;2023-03-01T06:48:22;36.03;;;14.00;;
19965;SDS011;10144;50.874;4.762;2023-03-01T06:53:18;28.60;;;12.80;;
19965;SDS011;10144;50.874;4.762;2023-03-01T06:55:47;25.20;;;11.07;;
19965;SDS011;10144;50.874;4.762;2023-03-01T06:58:19;24.83;;;10.67;;
19965;SDS011;10144;50.874;4.762;2023-03-01T07:03:17;23.37;;;12.00;;
19965;SDS011;10144;50.874;4.762;2023-03-01T07:05:49;23.63;;;11.60;;
19965;SDS011;10144;50.874;4.762;2023-03-01T07:08:19;20.87;;;10.87;;
19965;SDS011;10144;50.874;4.762;2023-03-01T07:10:46;23.10;;;10.50;;
19965;SDS011;10144;50.874;4.762;2023-03-01T07:13:11;23.80;;;9.90;;
19965;SDS011;10144;50.874;4.762;2023-03-01T07:18:09;17.63;;;8.93;;
19965;SDS011;10144;50.874;4.762;2023-03-01T07:20:36;16.60;;;9.07;;
19965;SDS011;10144;50.874;4.762;2023-03-01T07:23:05;18.30;;;8.97;;
19965;SDS011;10144;50.874;4.762;2023-03-01T07:28:02;33.87;;;14.13;;
19965;SDS011;10144;50.874;4.762;2023-03-01T07:30:33;17.80;;;9.80;;
19965;SDS011;10144;50.874;4.762;2023-03-01T07:32:59;16.42;;;9.57;;
19965;SDS011;10144;50.874;4.762;2023-03-01T07:35:25;16.88;;;9.00;;
19965;SDS011;10144;50.874;4.762;2023-03-01T07:37:52;15.82;;;8.98;;
19965;SDS011;10144;50.874;4.762;2023-03-01T07:40:24;21.60;;;11.25;;
19965;SDS011;10144;50.874;4.762;2023-03-01T07:42:54;17.25;;;10.15;;
19965;SDS011;10144;50.874;4.762;2023-03-01T07:45:32;18.48;;;10.25;;
19965;SDS011;10144;50.874;4.762;2023-03-01T07:47:58;17.80;;;8.93;;
19965;SDS011;10144;50.874;4.762;2023-03-01T07:50:24;13.68;;;8.10;;
19965;SDS011;10144;50.874;4.762;2023-03-01T07:52:50;16.98;;;8.80;;
19965;SDS011;10144;50.874;4.762;2023-03-01T07:55:17;17.13;;;9.10;;
19965;SDS011;10144;50.874;4.762;2023-03-01T07:57:42;17.92;;;9.30;;
19965;SDS011;10144;50.874;4.762;2023-03-01T08:00:09;17.00;;;9.63;;
19965;SDS011;10144;50.874;4.762;2023-03-01T08:02:37;17.42;;;9.57;;
19965;SDS011;10144;50.874;4.762;2023-03-01T08:05:03;19.23;;;9.30;;
19965;SDS011;10144;50.874;4.762;2023-03-01T08:07:29;19.00;;;9.35;;
19965;SDS011;10144;50.874;4.762;2023-03-01T08:09:54;13.35;;;8.50;;
19965;SDS011;10144;50.874;4.762;2023-03-01T08:12:20;15.30;;;9.07;;
19965;SDS011;10144;50.874;4.762;2023-03-01T08:14:46;16.42;;;9.05;;
19965;SDS011;10144;50.874;4.762;2023-03-01T08:17:13;15.60;;;9.32;;
19965;SDS011;10144;50.874;4.762;2023-03-01T08:19:39;13.90;;;8.88;;
19965;SDS011;10144;50.874;4.762;2023-03-01T08:22:05;15.27;;;8.57;;
19965;SDS011;10144;50.874;4.762;2023-03-01T08:24:30;16.35;;;8.85;;
19965;SDS011;10144;50.874;4.762;2023-03-01T08:26:56;21.35;;;12.15;;
19965;SDS011;10144;50.874;4.762;2023-03-01T08:29:22;20.60;;;10.65;;
19965;SDS011;10144;50.874;4.762;2023-03-01T08:31:49;17.65;;;9.85;;
19965;SDS011;10144;50.874;4.762;2023-03-01T08:34:15;13.88;;;8.70;;
19965;SDS011;10144;50.874;4.762;2023-03-01T08:36:44;15.93;;;9.35;;
19965;SDS011;10144;50.874;4.762;2023-03-01T08:39:12;51.08;;;22.05;;
19965;SDS011;10144;50.874;4.762;2023-03-01T08:41:39;18.45;;;10.93;;
19965;SDS011;10144;50.874;4.762;2023-03-01T08:44:05;16.90;;;9.45;;
19965;SDS011;10144;50.874;4.762;2023-03-01T08:46:33;18.92;;;9.77;;
19965;SDS011;10144;50.874;4.762;2023-03-01T08:49:03;14.05;;;9.10;;
19965;SDS011;10144;50.874;4.762;2023-03-01T08:51:32;17.30;;;9.73;;
19965;SDS011;10144;50.874;4.762;2023-03-01T08:54:02;17.27;;;9.65;;
19965;SDS011;10144;50.874;4.762;2023-03-01T08:56:30;21.50;;;13.00;;
19965;SDS011;10144;50.874;4.762;2023-03-01T08:58:56;16.80;;;9.70;;
19965;SDS011;10144;50.874;4.762;2023-03-01T09:01:21;19.60;;;10.93;;
19965;SDS011;10144;50.874;4.762;2023-03-01T09:03:47;18.85;;;10.00;;
19965;SDS011;10144;50.874;4.762;2023-03-01T09:06:14;18.02;;;10.55;;
19965;SDS011;10144;50.874;4.762;2023-03-01T09:08:44;19.00;;;11.43;;
19965;SDS011;10144;50.874;4.762;2023-03-01T09:11:14;17.38;;;9.63;;
19965;SDS011;10144;50.874;4.762;2023-03-01T09:13:43;18.05;;;10.23;;
19965;SDS011;10144;50.874;4.762;2023-03-01T09:16:16;28.10;;;13.63;;
19965;SDS011;10144;50.874;4.762;2023-03-01T09:18:48;19.45;;;10.30;;
19965;SDS011;10144;50.874;4.762;2023-03-01T09:21:15;20.15;;;10.80;;
19965;SDS011;10144;50.874;4.762;2023-03-01T09:23:42;18.88;;;11.30;;
19965;SDS011;10144;50.874;4.762;2023-03-01T09:26:14;14.95;;;9.55;;
19965;SDS011;10144;50.874;4.762;2023-03-01T09:28:46;19.45;;;9.85;;
19965;SDS011;10144;50.874;4.762;2023-03-01T09:31:13;19.75;;;10.98;;
19965;SDS011;10144;50.874;4.762;2023-03-01T09:33:39;19.60;;;10.40;;
19965;SDS011;10144;50.874;4.762;2023-03-01T09:36:07;17.40;;;10.60;;
19965;SDS011;10144;50.874;4.762;2023-03-01T09:38:37;20.15;;;10.32;;
19965;SDS011;10144;50.874;4.762;2023-03-01T09:41:08;18.48;;;10.52;;
19965;SDS011;10144;50.874;4.762;2023-03-01T09:43:52;17.02;;;10.60;;
19965;SDS011;10144;50.874;4.762;2023-03-01T09:46:23;18.63;;;10.55;;
19965;SDS011;10144;50.874;4.762;2023-03-01T09:48:52;16.58;;;9.55;;
19965;SDS011;10144;50.874;4.762;2023-03-01T09:51:24;17.88;;;10.93;;
19965;SDS011;10144;50.874;4.762;2023-03-01T09:53:56;18.20;;;10.07;;
19965;SDS011;10144;50.874;4.762;2023-03-01T10:04:59;18.15;;;10.35;;
19965;SDS011;10144;50.874;4.762;2023-03-01T10:10:40;18.80;;;9.82;;
19965;SDS011;10144;50.874;4.762;2023-03-01T10:15:44;19.67;;;9.57;;
19965;SDS011;10144;50.874;4.762;2023-03-01T10:18:20;22.20;;;10.53;;
19965;SDS011;10144;50.874;4.762;2023-03-01T10:20:52;21.40;;;11.10;;
19965;SDS011;10144;50.874;4.762;2023-03-01T10:23:23;28.77;;;13.77;;
19965;SDS011;10144;50.874;4.762;2023-03-01T10:31:16;17.92;;;10.05;;
19965;SDS011;10144;50.874;4.762;2023-03-01T10:33:45;22.33;;;10.65;;
19965;SDS011;10144;50.874;4.762;2023-03-01T10:36:12;19.45;;;10.63;;
19965;SDS011;10144;50.874;4.762;2023-03-01T10:38:49;20.45;;;10.65;;
19965;SDS011;10144;50.874;4.762;2023-03-01T10:41:18;21.65;;;10.35;;
19965;SDS011;10144;50.874;4.762;2023-03-01T10:43:49;19.83;;;10.85;;
19965;SDS011;10144;50.874;4.762;2023-03-01T10:51:33;18.60;;;9.85;;
19965;SDS011;10144;50.874;4.762;2023-03-01T10:53:58;21.10;;;9.73;;
19965;SDS011;10144;50.874;4.762;2023-03-01T10:56:25;20.10;;;10.57;;
19965;SDS011;10144;50.874;4.762;2023-03-01T10:59:01;21.58;;;10.80;;
19965;SDS011;10144;50.874;4.762;2023-03-01T11:01:31;21.50;;;10.27;;
19965;SDS011;10144;50.874;4.762;2023-03-01T11:06:30;20.00;;;11.07;;
19965;SDS011;10144;50.874;4.762;2023-03-01T11:08:57;21.00;;;10.98;;
19965;SDS011;10144;50.874;4.762;2023-03-01T11:11:43;17.48;;;9.73;;
19965;SDS011;10144;50.874;4.762;2023-03-01T11:14:15;18.98;;;11.15;;
19965;SDS011;10144;50.874;4.762;2023-03-01T11:17:26;17.20;;;9.80;;
19965;SDS011;10144;50.874;4.762;2023-03-01T11:20:13;19.30;;;10.15;;
19965;SDS011;10144;50.874;4.762;2023-03-01T11:22:55;18.42;;;9.98;;
19965;SDS011;10144;50.874;4.762;2023-03-01T11:25:54;20.83;;;9.82;;
19965;SDS011;10144;50.874;4.762;2023-03-01T11:28:21;21.75;;;10.05;;
19965;SDS011;10144;50.874;4.762;2023-03-01T11:36:07;19.92;;;10.05;;
19965;SDS011;10144;50.874;4.762;2023-03-01T11:38:45;17.08;;;9.80;;
19965;SDS011;10144;50.874;4.762;2023-03-01T11:41:16;17.02;;;9.55;;
19965;SDS011;10144;50.874;4.762;2023-03-01T12:20:32;17.48;;;8.43;;
19965;SDS011;10144;50.874;4.762;2023-03-01T12:37:18;17.87;;;9.60;;
19965;SDS011;10144;50.874;4.762;2023-03-01T12:51:26;20.55;;;10.13;;
19965;SDS011;10144;50.874;4.762;2023-03-01T12:53:56;18.60;;;10.15;;
19965;SDS011;10144;50.874;4.762;2023-03-01T12:56:27;19.85;;;9.90;;
19965;SDS011;10144;50.874;4.762;2023-03-01T12:58:59;19.45;;;10.00;;
19965;SDS011;10144;50.874;4.762;2023-03-01T13:07:37;18.95;;;9.77;;
19965;SDS011;10144;50.874;4.762;2023-03-01T13:10:22;21.13;;;9.75;;
19965;SDS011;10144;50.874;4.762;2023-03-01T13:15:36;19.17;;;9.63;;
19965;SDS011;10144;50.874;4.762;2023-03-01T13:20:49;23.30;;;11.07;;
19965;SDS011;10144;50.874;4.762;2023-03-01T13:31:00;19.57;;;9.90;;
19965;SDS011;10144;50.874;4.762;2023-03-01T13:35:52;19.80;;;10.37;;
19965;SDS011;10144;50.874;4.762;2023-03-01T13:41:06;18.47;;;9.50;;
19965;SDS011;10144;50.874;4.762;2023-03-01T13:43:33;24.60;;;10.40;;
19965;SDS011;10144;50.874;4.762;2023-03-01T13:46:02;19.03;;;9.53;;
19965;SDS011;10144;50.874;4.762;2023-03-01T13:48:54;21.23;;;10.60;;
19965;SDS011;10144;50.874;4.762;2023-03-01T13:51:25;16.97;;;9.10;;
19965;SDS011;10144;50.874;4.762;2023-03-01T13:53:53;19.40;;;8.90;;
19965;SDS011;10144;50.874;4.762;2023-03-01T13:59:14;20.03;;;9.50;;
19965;SDS011;10144;50.874;4.762;2023-03-01T14:01:42;21.00;;;9.37;;
19965;SDS011;10144;50.874;4.762;2023-03-01T14:04:25;24.27;;;9.70;;
19965;SDS011;10144;50.874;4.762;2023-03-01T14:07:08;21.80;;;9.67;;
19965;SDS011;10144;50.874;4.762;2023-03-01T14:09:45;19.90;;;9.43;;
19965;SDS011;10144;50.874;4.762;2023-03-01T14:19:59;23.50;;;10.13;;
19965;SDS011;10144;50.874;4.762;2023-03-01T14:22:33;23.70;;;10.60;;
19965;SDS011;10144;50.874;4.762;2023-03-01T14:27:37;20.20;;;9.47;;
19965;SDS011;10144;50.874;4.762;2023-03-01T14:30:11;19.40;;;8.93;;
19965;SDS011;10144;50.874;4.762;2023-03-01T14:33:02;18.53;;;9.73;;
19965;SDS011;10144;50.874;4.762;2023-03-01T14:35:32;24.67;;;10.20;;
19965;SDS011;10144;50.874;4.762;2023-03-01T14:38:00;25.33;;;9.37;;
19965;SDS011;10144;50.874;4.762;2023-03-01T14:42:53;25.60;;;11.20;;
19965;SDS011;10144;50.874;4.762;2023-03-01T14:45:21;25.13;;;10.93;;
19965;SDS011;10144;50.874;4.762;2023-03-01T14:47:49;19.60;;;9.50;;
19965;SDS011;10144;50.874;4.762;2023-03-01T14:52:50;20.03;;;8.83;;
19965;SDS011;10144;50.874;4.762;2023-03-01T14:55:20;18.90;;;8.70;;
19965;SDS011;10144;50.874;4.762;2023-03-01T14:57:54;19.00;;;8.10;;
19965;SDS011;10144;50.874;4.762;2023-03-01T15:00:25;20.00;;;8.90;;
19965;SDS011;10144;50.874;4.762;2023-03-01T15:02:54;22.40;;;9.10;;
19965;SDS011;10144;50.874;4.762;2023-03-01T15:05:31;20.60;;;8.47;;
19965;SDS011;10144;50.874;4.762;2023-03-01T15:07:58;19.37;;;9.13;;
19965;SDS011;10144;50.874;4.762;2023-03-01T15:10:27;20.70;;;9.30;;
19965;SDS011;10144;50.874;4.762;2023-03-01T15:12:55;21.90;;;8.87;;
19965;SDS011;10144;50.874;4.762;2023-03-01T15:15:35;21.20;;;8.87;;
19965;SDS011;10144;50.874;4.762;2023-03-01T15:18:05;18.27;;;8.43;;
19965;SDS011;10144;50.874;4.762;2023-03-01T15:20:43;20.50;;;8.50;;
19965;SDS011;10144;50.874;4.762;2023-03-01T15:25:55;18.07;;;7.63;;
19965;SDS011;10144;50.874;4.762;2023-03-01T15:28:26;17.80;;;9.10;;
19965;SDS011;10144;50.874;4.762;2023-03-01T15:31:17;17.13;;;7.30;;
19965;SDS011;10144;50.874;4.762;2023-03-01T15:33:48;21.10;;;8.17;;
19965;SDS011;10144;50.874;4.762;2023-03-01T15:39:23;18.30;;;8.10;;
19965;SDS011;10144;50.874;4.762;2023-03-01T15:41:57;21.67;;;8.37;;
19965;SDS011;10144;50.874;4.762;2023-03-01T15:44:27;20.17;;;8.70;;
19965;SDS011;10144;50.874;4.762;2023-03-01T15:46:54;19.47;;;9.10;;
19965;SDS011;10144;50.874;4.762;2023-03-01T15:49:37;19.83;;;8.83;;
19965;SDS011;10144;50.874;4.762;2023-03-01T15:52:05;26.67;;;9.97;;
19965;SDS011;10144;50.874;4.762;2023-03-01T15:54:38;22.80;;;9.43;;
19965;SDS011;10144;50.874;4.762;2023-03-01T15:57:05;23.37;;;9.57;;
19965;SDS011;10144;50.874;4.762;2023-03-01T15:59:37;24.73;;;9.43;;
19965;SDS011;10144;50.874;4.762;2023-03-01T16:02:07;22.63;;;9.50;;
19965;SDS011;10144;50.874;4.762;2023-03-01T16:04:34;17.53;;;8.50;;
19965;SDS011;10144;50.874;4.762;2023-03-01T16:07:00;36.23;;;13.57;;
19965;SDS011;10144;50.874;4.762;2023-03-01T16:09:26;46.80;;;16.30;;
19965;SDS011;10144;50.874;4.762;2023-03-01T16:11:52;38.10;;;15.30;;
19965;SDS011;10144;50.874;4.762;2023-03-01T16:14:18;22.90;;;10.00;;
19965;SDS011;10144;50.874;4.762;2023-03-01T16:16:45;29.87;;;10.37;;
19965;SDS011;10144;50.874;4.762;2023-03-01T16:19:14;29.83;;;9.93;;
19965;SDS011;10144;50.874;4.762;2023-03-01T16:21:40;29.47;;;10.17;;
19965;SDS011;10144;50.874;4.762;2023-03-01T16:24:07;47.73;;;18.50;;
19965;SDS011;10144;50.874;4.762;2023-03-01T16:26:32;34.30;;;14.70;;
19965;SDS011;10144;50.874;4.762;2023-03-01T16:28:58;26.27;;;10.37;;
19965;SDS011;10144;50.874;4.762;2023-03-01T16:31:24;32.27;;;12.57;;
19965;SDS011;10144;50.874;4.762;2023-03-01T16:33:54;20.33;;;8.80;;
19965;SDS011;10144;50.874;4.762;2023-03-01T16:36:21;35.17;;;13.87;;
19965;SDS011;10144;50.874;4.762;2023-03-01T16:38:49;20.60;;;8.60;;
19965;SDS011;10144;50.874;4.762;2023-03-01T16:41:16;24.23;;;10.97;;
19965;SDS011;10144;50.874;4.762;2023-03-01T16:43:43;21.43;;;9.77;;
19965;SDS011;10144;50.874;4.762;2023-03-01T16:46:09;21.80;;;9.03;;
19965;SDS011;10144;50.874;4.762;2023-03-01T16:48:36;19.73;;;8.07;;
19965;SDS011;10144;50.874;4.762;2023-03-01T16:51:02;19.00;;;8.40;;
19965;SDS011;10144;50.874;4.762;2023-03-01T16:53:29;16.43;;;7.43;;
19965;SDS011;10144;50.874;4.762;2023-03-01T16:55:55;21.10;;;7.10;;
19965;SDS011;10144;50.874;4.762;2023-03-01T16:58:22;14.83;;;7.17;;
19965;SDS011;10144;50.874;4.762;2023-03-01T17:00:50;134.50;;;33.30;;
19965;SDS011;10144;50.874;4.762;2023-03-01T17:03:16;126.53;;;29.47;;
19965;SDS011;10144;50.874;4.762;2023-03-01T17:05:42;150.30;;;41.27;;
19965;SDS011;10144;50.874;4.762;2023-03-01T17:08:07;96.13;;;31.23;;
19965;SDS011;10144;50.874;4.762;2023-03-01T17:10:33;75.83;;;28.30;;
19965;SDS011;10144;50.874;4.762;2023-03-01T17:12:59;27.43;;;10.27;;
19965;SDS011;10144;50.874;4.762;2023-03-01T17:15:24;49.67;;;17.60;;
19965;SDS011;10144;50.874;4.762;2023-03-01T17:17:50;58.77;;;19.97;;
19965;SDS011;10144;50.874;4.762;2023-03-01T17:20:16;22.43;;;9.93;;
19965;SDS011;10144;50.874;4.762;2023-03-01T17:22:42;43.20;;;17.10;;
19965;SDS011;10144;50.874;4.762;2023-03-01T17:25:08;45.30;;;15.87;;
19965;SDS011;10144;50.874;4.762;2023-03-01T17:27:36;42.23;;;14.10;;
19965;SDS011;10144;50.874;4.762;2023-03-01T17:30:02;110.57;;;31.40;;
19965;SDS011;10144;50.874;4.762;2023-03-01T17:32:29;67.93;;;23.43;;
19965;SDS011;10144;50.874;4.762;2023-03-01T17:34:55;29.23;;;10.23;;
19965;SDS011;10144;50.874;4.762;2023-03-01T17:37:21;19.97;;;9.63;;
19965;SDS011;10144;50.874;4.762;2023-03-01T17:39:46;20.07;;;8.53;;
19965;SDS011;10144;50.874;4.762;2023-03-01T17:42:12;22.07;;;8.47;;
19965;SDS011;10144;50.874;4.762;2023-03-01T17:44:38;19.50;;;7.57;;
19965;SDS011;10144;50.874;4.762;2023-03-01T17:47:04;25.27;;;9.03;;
19965;SDS011;10144;50.874;4.762;2023-03-01T17:49:30;118.10;;;32.77;;
19965;SDS011;10144;50.874;4.762;2023-03-01T17:51:57;63.23;;;18.43;;
19965;SDS011;10144;50.874;4.762;2023-03-01T17:54:23;61.30;;;17.63;;
19965;SDS011;10144;50.874;4.762;2023-03-01T17:56:49;46.93;;;16.50;;
19965;SDS011;10144;50.874;4.762;2023-03-01T17:59:18;23.13;;;10.13;;
19965;SDS011;10144;50.874;4.762;2023-03-01T18:01:44;25.33;;;10.07;;
19965;SDS011;10144;50.874;4.762;2023-03-01T18:04:10;26.63;;;10.50;;
19965;SDS011;10144;50.874;4.762;2023-03-01T18:06:37;19.27;;;8.23;;
19965;SDS011;10144;50.874;4.762;2023-03-01T18:09:05;21.63;;;8.27;;
19965;SDS011;10144;50.874;4.762;2023-03-01T18:11:35;22.13;;;8.93;;
19965;SDS011;10144;50.874;4.762;2023-03-01T18:14:01;19.43;;;8.53;;
19965;SDS011;10144;50.874;4.762;2023-03-01T18:16:27;20.87;;;8.30;;
19965;SDS011;10144;50.874;4.762;2023-03-01T18:18:55;22.20;;;9.53;;
19965;SDS011;10144;50.874;4.762;2023-03-01T18:21:21;19.30;;;6.97;;
19965;SDS011;10144;50.874;4.762;2023-03-01T18:23:47;23.70;;;8.40;;
19965;SDS011;10144;50.874;4.762;2023-03-01T18:26:13;19.03;;;8.00;;
19965;SDS011;10144;50.874;4.762;2023-03-01T18:28:41;21.77;;;8.93;;